Time;durP1;ratioP1;P1;durP2;ratioP2;P2;SDS_P1;SDS_P2;PMS_P1;PMS_P2;Temp;Humidity;BMP_temperature;BMP_pressure;BME280_temperature;BME280_humidity;BME280_pressure;Samples;Min_cycle;Max_cycle;Signal;HPM_P1;HPM_P2
2023/09/28 00:01:22;;;;;;;952.42;900.17;;;;;;;23.03;60.29;98703.13;4905364;28;103152;-63
2023/09/28 00:03:50;;;;;;;940.03;888.43;;;;;;;23.07;59.16;98701.72;4924799;28;104514;-64
2023/09/28 00:06:18;;;;;;;911.55;862.25;;;;;;;23.64;57.93;98707.94;4910469;28;103262;-64
2023/09/28 00:08:45;;;;;;;821.28;780.20;;;;;;;24.03;56.27;98709.31;4908105;28;104314;-64
2023/09/28 00:11:13;;;;;;;904.03;854.47;;;;;;;22.90;58.54;98703.81;4920722;28;103051;-63
2023/09/28 00:13:40;;;;;;;930.13;880.00;;;;;;;23.71;57.17;98712.56;4912146;28;103993;-64
2023/09/28 00:16:08;;;;;;;862.92;817.38;;;;;;;23.79;56.32;98710.56;4908653;28;103244;-64
2023/09/28 00:18:37;;;;;;;756.10;719.90;;;;;;;24.16;55.31;98709.44;4908404;28;102628;-64
2023/09/28 00:21:05;;;;;;;759.03;722.42;;;;;;;23.99;55.03;98716.13;4911109;28;103958;-63
2023/09/28 00:23:32;;;;;;;869.10;822.97;;;;;;;23.30;57.48;98725.84;4928784;28;103472;-63
2023/09/28 00:26:00;;;;;;;912.10;864.17;;;;;;;23.76;56.74;98715.50;4921667;28;103255;-64
2023/09/28 00:28:27;;;;;;;823.33;781.85;;;;;;;23.81;55.80;98723.84;4916192;28;102657;-64
2023/09/28 00:30:58;;;;;;;759.20;722.83;;;;;;;24.09;55.21;98732.81;4904128;28;104218;-64
2023/09/28 00:33:25;;;;;;;884.00;836.55;;;;;;;23.15;57.42;98723.16;4912005;28;104624;-63
2023/09/28 00:35:54;;;;;;;1206.68;999.90;;;;;;;22.36;61.48;98722.09;4913608;28;104029;-63
2023/09/28 00:38:21;;;;;;;1037.53;978.42;;;;;;;22.86;59.84;98715.13;4908546;28;103078;-63
2023/09/28 00:40:49;;;;;;;852.78;809.03;;;;;;;23.62;56.94;98720.78;4903667;28;102933;-64
2023/09/28 00:43:25;;;;;;;809.38;769.50;;;;;;;23.74;56.10;98726.50;4909890;28;103884;-64
2023/09/28 00:45:52;;;;;;;788.13;749.45;;;;;;;23.87;55.44;98733.88;4912367;28;104212;-64
2023/09/28 00:48:20;;;;;;;779.83;742.33;;;;;;;23.86;55.76;98733.03;4908282;28;102842;-64
2023/09/28 00:50:49;;;;;;;788.78;750.58;;;;;;;23.72;55.41;98733.13;4904823;28;104186;-64
2023/09/28 00:53:21;;;;;;;750.15;714.67;;;;;;;23.95;55.06;98736.44;4915553;28;104219;-64
2023/09/28 00:55:54;;;;;;;676.53;646.47;;;;;;;24.06;54.06;98733.19;4906242;28;104448;-65
2023/09/28 00:58:23;;;;;;;894.07;846.53;;;;;;;23.31;56.68;98733.72;4904933;28;105348;-64
2023/09/28 01:00:53;;;;;;;742.42;707.20;;;;;;;23.87;54.78;98728.47;4909255;28;102939;-64
2023/09/28 01:03:20;;;;;;;644.08;616.33;;;;;;;24.13;53.51;98717.94;4905407;28;103264;-64
2023/09/28 01:05:48;;;;;;;673.72;642.63;;;;;;;23.39;54.04;98730.09;4908891;28;104123;-64
2023/09/28 01:08:18;;;;;;;953.33;901.97;;;;;;;22.82;57.23;98727.31;4906439;28;102723;-64
2023/09/28 01:10:50;;;;;;;1202.20;999.90;;;;;;;22.05;60.54;98734.03;4905053;28;104118;-64
2023/09/28 01:13:20;;;;;;;1125.38;999.90;;;;;;;21.34;65.49;98736.06;4910651;28;103426;-64
2023/09/28 01:15:50;;;;;;;950.55;899.05;;;;;;;22.14;60.83;98727.56;4907972;28;103277;-64
2023/09/28 01:18:20;;;;;;;954.33;902.35;;;;;;;22.42;59.74;98726.75;4906736;28;103420;-64
2023/09/28 01:20:51;;;;;;;1013.05;957.55;;;;;;;22.24;60.82;98723.56;4910867;28;102869;-64
2023/09/28 01:23:20;;;;;;;942.22;892.25;;;;;;;22.93;58.34;98729.53;4907870;28;103771;-64
2023/09/28 01:25:49;;;;;;;923.08;874.47;;;;;;;22.73;58.05;98734.66;4912691;28;103192;-64
2023/09/28 01:28:17;;;;;;;927.42;878.90;;;;;;;22.75;58.09;98726.38;4909720;28;102833;-64
2023/09/28 01:30:46;;;;;;;958.13;905.77;;;;;;;22.39;59.85;98731.66;4912371;28;104270;-64
2023/09/28 01:33:13;;;;;;;933.05;884.10;;;;;;;23.02;57.77;98723.00;4908425;28;103840;-64
2023/09/28 01:35:41;;;;;;;749.78;714.78;;;;;;;23.50;55.99;98730.41;4920635;28;104442;-64
2023/09/28 01:38:18;;;;;;;700.45;668.80;;;;;;;23.72;55.21;98731.25;4912847;28;102655;-64
2023/09/28 01:40:49;;;;;;;660.20;630.92;;;;;;;23.80;54.40;98733.00;4909094;28;104683;-64
2023/09/28 01:43:17;;;;;;;694.97;663.87;;;;;;;23.66;54.66;98737.44;4901704;28;103527;-64
2023/09/28 01:45:44;;;;;;;756.63;721.25;;;;;;;23.19;56.14;98734.38;4918543;28;103337;-63
2023/09/28 01:48:12;;;;;;;720.43;687.10;;;;;;;23.47;55.27;98727.25;4905025;28;102996;-64
2023/09/28 01:50:39;;;;;;;739.90;706.03;;;;;;;23.51;55.44;98724.00;4912814;28;102734;-64
2023/09/28 01:53:07;;;;;;;682.30;652.20;;;;;;;23.65;54.59;98725.81;4904125;28;104537;-63
2023/09/28 01:55:35;;;;;;;769.50;733.17;;;;;;;23.48;55.68;98719.00;4906835;28;103202;-64
2023/09/28 01:58:07;;;;;;;765.60;728.78;;;;;;;23.51;55.58;98724.00;4906336;28;102703;-63
2023/09/28 02:00:35;;;;;;;741.15;706.58;;;;;;;23.63;55.34;98727.84;4905819;28;103706;-64
2023/09/28 02:03:05;;;;;;;782.70;745.05;;;;;;;23.18;56.36;98717.41;4905994;28;103455;-64
2023/09/28 02:05:33;;;;;;;756.92;721.38;;;;;;;23.52;55.37;98725.66;4915981;28;104279;-64
2023/09/28 02:08:02;;;;;;;692.63;661.83;;;;;;;23.77;54.65;98728.81;4905221;28;102928;-64
2023/09/28 02:10:29;;;;;;;708.13;676.57;;;;;;;23.75;54.14;98735.44;4907295;28;104685;-63
2023/09/28 02:12:57;;;;;;;739.35;705.85;;;;;;;23.29;55.28;98718.75;4913281;28;104768;-66
2023/09/28 02:15:25;;;;;;;699.92;668.58;;;;;;;23.81;54.45;98726.56;4905758;28;103434;-64
2023/09/28 02:17:53;;;;;;;660.20;631.25;;;;;;;23.88;53.30;98730.16;4909014;28;102777;-64
2023/09/28 02:20:22;;;;;;;681.67;651.17;;;;;;;23.75;53.86;98732.75;4909321;28;103028;-63
2023/09/28 02:22:52;;;;;;;619.33;592.53;;;;;;;24.05;53.42;98721.59;4908780;28;103696;-63
2023/09/28 02:25:22;;;;;;;773.13;736.13;;;;;;;23.22;56.20;98732.16;4906558;28;103268;-64
2023/09/28 02:27:52;;;;;;;796.42;758.47;;;;;;;23.38;55.70;98717.66;4906994;28;103140;-63
2023/09/28 02:30:22;;;;;;;676.53;646.72;;;;;;;23.84;53.97;98734.25;4906811;28;102913;-64
2023/09/28 02:32:53;;;;;;;657.63;629.00;;;;;;;23.80;53.75;98733.00;4910009;28;104528;-64
2023/09/28 02:35:20;;;;;;;680.23;650.37;;;;;;;23.85;53.79;98742.19;4906122;28;103400;-63
2023/09/28 02:37:51;;;;;;;644.05;615.80;;;;;;;23.85;53.39;98741.34;4910487;28;102786;-64
2023/09/28 02:40:19;;;;;;;666.42;636.97;;;;;;;24.00;53.09;98739.41;4913998;28;104147;-64
2023/09/28 02:42:49;;;;;;;651.43;622.60;;;;;;;24.04;53.04;98736.09;4912318;28;103677;-65
2023/09/28 02:45:16;;;;;;;655.95;627.20;;;;;;;24.00;53.15;98744.81;4913926;28;104269;-64
2023/09/28 02:47:47;;;;;;;692.00;660.57;;;;;;;23.70;53.70;98754.88;4910418;28;102903;-64
2023/09/28 02:50:16;;;;;;;767.15;730.97;;;;;;;22.95;55.72;98744.50;4912569;28;102749;-64
2023/09/28 02:52:47;;;;;;;710.92;679.00;;;;;;;23.45;54.15;98751.72;4907931;28;104263;-64
2023/09/28 02:55:17;;;;;;;652.80;624.97;;;;;;;23.94;53.26;98750.97;4908301;28;104188;-64
2023/09/28 02:57:46;;;;;;;632.30;604.67;;;;;;;24.08;52.42;98752.75;4901464;28;102954;-65
2023/09/28 03:00:18;;;;;;;613.15;586.33;;;;;;;24.11;52.21;98753.19;4904970;28;104228;-64
2023/09/28 03:02:47;;;;;;;727.55;694.10;;;;;;;23.41;54.05;98750.44;4907452;28;104301;-64
2023/09/28 03:05:16;;;;;;;751.28;715.95;;;;;;;23.31;54.41;98752.56;4904087;28;104229;-64
2023/09/28 03:07:47;;;;;;;713.30;680.43;;;;;;;23.48;54.10;98761.28;4907519;28;104495;-64
2023/09/28 03:10:14;;;;;;;720.40;687.10;;;;;;;23.13;54.72;98762.13;4907086;28;104314;-64
2023/09/28 03:12:45;;;;;;;693.28;661.58;;;;;;;23.61;53.60;98756.03;4909225;28;104223;-64
2023/09/28 03:15:12;;;;;;;620.40;594.08;;;;;;;24.05;52.54;98759.38;4908691;28;103184;-64
2023/09/28 03:17:41;;;;;;;632.90;605.00;;;;;;;23.94;52.42;98767.16;4907901;28;102682;-64
2023/09/28 03:20:13;;;;;;;631.67;604.25;;;;;;;23.88;52.55;98767.94;4909598;28;102687;-63
2023/09/28 03:22:42;;;;;;;725.47;692.15;;;;;;;23.47;53.53;98756.91;4907487;28;103982;-64
2023/09/28 03:25:16;;;;;;;695.42;663.97;;;;;;;23.74;53.26;98758.03;4908740;28;103354;-64
2023/09/28 03:27:45;;;;;;;665.30;636.10;;;;;;;23.85;52.44;98761.06;4905729;28;102961;-64
2023/09/28 03:30:16;;;;;;;695.67;664.35;;;;;;;23.79;53.04;98763.69;4905116;28;102750;-64
2023/09/28 03:32:46;;;;;;;608.08;581.92;;;;;;;24.07;52.20;98767.25;4907544;28;104063;-64
2023/09/28 03:35:16;;;;;;;595.55;569.35;;;;;;;24.13;51.88;98770.06;4900907;28;103269;-64
2023/09/28 03:37:45;;;;;;;585.38;559.67;;;;;;;24.03;52.26;98769.50;4903895;28;102702;-64
2023/09/28 03:40:17;;;;;;;662.85;633.00;;;;;;;23.90;52.48;98777.50;4903027;28;104105;-63
2023/09/28 03:42:48;;;;;;;648.13;619.70;;;;;;;23.90;52.18;98774.78;4904260;28;103292;-63
2023/09/28 03:45:19;;;;;;;640.70;613.00;;;;;;;23.91;52.19;98764.84;4912165;28;103223;-64
2023/09/28 03:47:49;;;;;;;623.65;596.45;;;;;;;23.93;52.01;98760.09;4904062;28;102908;-64
2023/09/28 03:50:17;;;;;;;654.17;625.05;;;;;;;23.84;52.42;98761.22;4907223;28;103690;-66
2023/09/28 03:52:48;;;;;;;655.65;627.20;;;;;;;23.86;52.40;98770.00;4904390;28;103263;-64
2023/09/28 03:55:19;;;;;;;613.53;586.30;;;;;;;23.66;52.56;98767.91;4902346;28;102999;-64
2023/09/28 03:57:48;;;;;;;628.25;600.08;;;;;;;23.65;52.85;98774.34;4907557;28;103805;-66
2023/09/28 04:00:17;;;;;;;619.17;592.17;;;;;;;23.91;51.99;98773.78;4904392;28;104189;-66
2023/09/28 04:02:47;;;;;;;585.28;559.60;;;;;;;23.58;51.91;98761.81;4903500;28;103262;-66
2023/09/28 04:05:20;;;;;;;815.70;775.83;;;;;;;22.47;56.02;98772.78;4907364;28;103042;-66
2023/09/28 04:07:48;;;;;;;772.22;736.17;;;;;;;23.23;54.80;98770.72;4913576;28;103000;-66
2023/09/28 04:10:17;;;;;;;678.05;647.83;;;;;;;23.79;52.80;98777.16;4902886;28;103815;-66
2023/09/28 04:12:50;;;;;;;615.47;588.35;;;;;;;24.04;52.27;98783.84;4911337;28;103883;-66
2023/09/28 04:15:18;;;;;;;593.92;567.60;;;;;;;24.17;51.76;98781.28;4905261;28;104383;-66
2023/09/28 04:17:46;;;;;;;595.63;568.88;;;;;;;24.08;51.95;98790.53;4903995;28;102940;-66
2023/09/28 04:20:14;;;;;;;591.05;565.10;;;;;;;24.23;51.18;98786.75;4910470;28;104186;-66
2023/09/28 04:22:42;;;;;;;609.40;582.10;;;;;;;24.10;51.51;98794.72;4905323;28;103679;-66
2023/09/28 04:25:11;;;;;;;604.72;577.78;;;;;;;24.24;51.60;98798.38;4908417;28;104485;-66
2023/09/28 04:27:41;;;;;;;595.30;568.83;;;;;;;24.27;51.30;98791.75;4911921;28;102777;-66
2023/09/28 04:30:09;;;;;;;859.42;815.58;;;;;;;22.92;55.11;98789.81;4909019;28;104112;-66
2023/09/28 04:32:38;;;;;;;800.80;764.10;;;;;;;23.41;54.43;98790.06;4911461;28;103079;-66
2023/09/28 04:35:10;;;;;;;630.80;603.97;;;;;;;23.91;52.87;98789.13;4909075;28;103508;-66
2023/09/28 04:37:38;;;;;;;605.40;579.53;;;;;;;23.99;52.08;98786.28;4908365;28;102686;-66
2023/09/28 04:40:08;;;;;;;605.97;579.60;;;;;;;23.82;51.79;98790.28;4923698;28;103998;-66
2023/09/28 04:42:36;;;;;;;614.83;588.40;;;;;;;23.95;52.05;98782.28;4906959;28;104144;-65
2023/09/28 04:45:09;;;;;;;578.53;553.97;;;;;;;24.12;51.85;98798.06;4904759;28;103217;-66
2023/09/28 04:47:38;;;;;;;581.10;555.90;;;;;;;24.09;51.53;98803.84;4912418;28;102736;-66
2023/09/28 04:50:08;;;;;;;614.55;587.55;;;;;;;23.72;52.30;98792.47;4916104;28;104007;-66
2023/09/28 04:52:36;;;;;;;586.10;560.63;;;;;;;23.58;52.03;98795.00;4909593;28;104185;-66
2023/09/28 04:55:04;;;;;;;573.72;548.97;;;;;;;23.49;52.09;98785.38;4907657;28;103900;-66
2023/09/28 04:57:35;;;;;;;520.70;499.03;;;;;;;24.03;50.88;98782.16;4903746;28;104714;-66
2023/09/28 05:00:06;;;;;;;532.30;509.73;;;;;;;24.01;50.87;98779.66;4911046;28;104418;-66
2023/09/28 05:02:36;;;;;;;545.90;522.38;;;;;;;24.02;50.23;98786.75;4909880;28;104072;-66
2023/09/28 05:05:08;;;;;;;501.17;480.40;;;;;;;24.22;49.98;98782.34;4907490;28;103095;-66
2023/09/28 05:07:36;;;;;;;522.42;500.20;;;;;;;23.97;50.38;98791.88;4920217;28;102664;-66
2023/09/28 05:10:06;;;;;;;539.20;516.20;;;;;;;24.08;50.72;98785.94;4911872;28;103191;-66
2023/09/28 05:12:34;;;;;;;636.17;607.67;;;;;;;23.57;52.21;98787.13;4904470;28;104276;-66
2023/09/28 05:15:03;;;;;;;633.97;606.07;;;;;;;23.46;51.91;98791.16;4905724;28;103559;-65
2023/09/28 05:17:31;;;;;;;644.67;616.50;;;;;;;23.74;52.13;98793.09;4912668;28;102669;-66
2023/09/28 05:20:01;;;;;;;555.17;531.58;;;;;;;24.11;51.05;98795.56;4905877;28;102862;-66
2023/09/28 05:22:29;;;;;;;538.75;515.95;;;;;;;24.13;50.83;98805.16;4911583;28;103594;-66
2023/09/28 05:24:57;;;;;;;519.90;497.60;;;;;;;24.04;50.18;98810.81;4908288;28;103374;-66
2023/09/28 05:27:25;;;;;;;545.85;522.45;;;;;;;23.91;50.83;98808.84;4914361;28;103047;-66
2023/09/28 05:29:53;;;;;;;512.67;491.13;;;;;;;24.11;50.63;98811.78;4911263;28;102612;-66
2023/09/28 05:32:21;;;;;;;485.55;465.67;;;;;;;24.25;50.04;98818.94;4920221;28;103799;-66
2023/09/28 05:34:50;;;;;;;480.60;460.73;;;;;;;24.22;50.04;98809.34;4912023;28;103916;-65
2023/09/28 05:37:19;;;;;;;475.43;456.03;;;;;;;24.31;49.72;98815.44;4910486;28;103245;-66
2023/09/28 05:39:47;;;;;;;471.27;451.95;;;;;;;24.38;49.90;98819.06;4907232;28;103525;-65
2023/09/28 05:42:16;;;;;;;511.83;490.15;;;;;;;23.95;50.89;98829.00;4919644;28;103725;-63
2023/09/28 05:44:44;;;;;;;691.67;660.38;;;;;;;22.74;53.83;98830.56;4909795;28;103174;-63
2023/09/28 05:47:15;;;;;;;719.50;686.93;;;;;;;22.99;53.72;98825.75;4904724;28;103113;-63
2023/09/28 05:49:43;;;;;;;569.13;545.50;;;;;;;23.95;51.70;98830.88;4907553;28;102932;-64
2023/09/28 05:52:11;;;;;;;547.53;523.83;;;;;;;23.88;51.26;98836.22;4908119;28;103665;-64
2023/09/28 05:54:42;;;;;;;557.78;533.85;;;;;;;23.71;51.27;98848.25;4917557;28;103278;-64
2023/09/28 05:57:10;;;;;;;542.38;519.40;;;;;;;23.84;50.80;98869.13;4910515;28;102709;-64
2023/09/28 05:59:38;;;;;;;521.83;499.58;;;;;;;24.02;50.74;98862.31;4907141;28;103537;-64
2023/09/28 06:02:08;;;;;;;568.75;544.45;;;;;;;23.69;51.29;98860.28;4907835;28;103414;-64
2023/09/28 06:04:36;;;;;;;517.22;495.52;;;;;;;24.19;50.47;98858.34;4899710;28;103213;-64
2023/09/28 06:07:04;;;;;;;476.05;456.38;;;;;;;24.44;49.73;98858.78;4910165;28;102772;-64
2023/09/28 06:09:32;;;;;;;441.83;424.00;;;;;;;24.52;49.28;98864.03;4910235;28;102739;-65
2023/09/28 06:12:01;;;;;;;460.27;441.52;;;;;;;24.37;49.48;98863.25;4905917;28;104887;-65
2023/09/28 06:14:29;;;;;;;459.98;441.20;;;;;;;24.61;49.62;98870.97;4905888;28;103317;-65
2023/09/28 06:16:57;;;;;;;513.28;490.88;;;;;;;24.06;50.72;98862.72;4909262;28;102692;-65
2023/09/28 06:19:25;;;;;;;523.78;500.95;;;;;;;24.29;50.16;98852.59;4913761;28;102738;-64
2023/09/28 06:21:55;;;;;;;491.00;470.47;;;;;;;24.48;49.95;98849.22;4919017;28;103575;-64
2023/09/28 06:24:25;;;;;;;488.88;468.25;;;;;;;24.30;49.77;98854.28;4913529;28;103258;-64
2023/09/28 06:26:53;;;;;;;538.43;514.70;;;;;;;24.06;51.13;98851.94;4909842;28;103001;-64
2023/09/28 06:29:23;;;;;;;525.35;502.65;;;;;;;24.34;50.34;98847.47;4907928;28;103922;-64
2023/09/28 06:31:53;;;;;;;530.00;506.67;;;;;;;24.43;50.33;98850.84;4902660;28;103337;-64
2023/09/28 06:34:21;;;;;;;551.88;527.40;;;;;;;24.51;49.95;98840.75;4923695;28;103209;-64
2023/09/28 06:36:49;;;;;;;559.10;534.17;;;;;;;23.96;50.80;98846.03;4909523;28;102983;-64
2023/09/28 06:39:21;;;;;;;560.05;535.80;;;;;;;24.57;50.21;98853.47;4913681;28;102694;-63
2023/09/28 06:41:49;;;;;;;531.55;508.60;;;;;;;24.11;49.94;98863.84;4903907;28;106400;-64
2023/09/28 06:44:27;;;;;;;553.72;529.47;;;;;;;24.61;50.24;98872.81;4911097;28;103278;-63
2023/09/28 06:46:56;;;;;;;529.60;506.70;;;;;;;24.45;49.98;98860.44;4909355;28;102860;-63
2023/09/28 06:49:25;;;;;;;550.45;526.50;;;;;;;24.88;49.48;98863.06;4905965;28;102740;-63
2023/09/28 06:51:53;;;;;;;497.40;476.67;;;;;;;24.94;48.67;98873.09;4920887;28;105017;-63
2023/09/28 06:54:23;;;;;;;501.20;480.23;;;;;;;24.27;49.80;98876.28;4909999;28;103228;-63
2023/09/28 06:56:51;;;;;;;516.07;494.27;;;;;;;24.35;49.80;98878.84;4908947;28;102940;-63
2023/09/28 06:59:20;;;;;;;504.63;482.88;;;;;;;24.44;49.55;98882.22;4928685;28;104009;-63
2023/09/28 07:01:49;;;;;;;468.13;448.17;;;;;;;24.89;49.07;98883.66;4905180;28;104323;-63
2023/09/28 07:04:17;;;;;;;395.42;378.58;;;;;;;25.41;47.53;98881.25;4907624;28;103219;-63
2023/09/28 07:06:45;;;;;;;420.92;402.67;;;;;;;25.76;47.39;98880.22;4907913;28;104699;-63
2023/09/28 07:09:13;;;;;;;450.20;430.92;;;;;;;25.59;48.52;98884.31;4905099;28;102856;-63
2023/09/28 07:11:44;;;;;;;422.20;404.10;;;;;;;26.26;46.81;98880.75;4913660;28;104094;-63
2023/09/28 07:14:12;;;;;;;440.50;421.75;;;;;;;25.42;47.54;98882.94;4908150;28;103289;-63
2023/09/28 07:16:42;;;;;;;452.75;433.15;;;;;;;25.87;46.59;98887.72;4911625;28;102817;-63
2023/09/28 07:19:12;;;;;;;464.23;444.45;;;;;;;25.51;47.48;98884.47;4917452;28;104098;-63
2023/09/28 07:21:41;;;;;;;438.90;420.23;;;;;;;25.59;47.68;98880.75;4907364;28;104217;-63
2023/09/28 07:24:09;;;;;;;478.90;458.58;;;;;;;25.34;47.30;98877.69;4908723;28;103341;-63
2023/09/28 07:26:46;;;;;;;450.42;431.45;;;;;;;25.89;47.24;98879.41;4911544;28;102609;-63
2023/09/28 07:29:14;;;;;;;449.10;429.77;;;;;;;26.46;45.92;98887.03;4905772;28;104215;-63
2023/09/28 07:31:43;;;;;;;438.23;419.52;;;;;;;26.76;45.34;98884.72;4909645;28;103440;-63
2023/09/28 07:34:13;;;;;;;556.90;531.90;;;;;;;27.23;45.71;98889.09;4908061;28;103216;-63
2023/09/28 07:36:41;;;;;;;559.38;534.63;;;;;;;27.82;44.29;98884.28;4909013;28;104373;-63
2023/09/28 07:39:08;;;;;;;546.10;522.10;;;;;;;28.22;43.49;98884.09;4924111;28;104017;-63
2023/09/28 07:41:36;;;;;;;536.13;512.53;;;;;;;28.33;43.19;98880.66;4919382;28;104376;-63
2023/09/28 07:44:05;;;;;;;512.93;490.70;;;;;;;28.61;43.08;98894.66;4909175;28;103225;-63
2023/09/28 07:46:33;;;;;;;515.97;493.47;;;;;;;28.95;41.44;98906.94;4916742;28;102998;-66
2023/09/28 07:49:02;;;;;;;518.00;495.38;;;;;;;28.08;42.63;98911.34;4923490;28;102668;-66
2023/09/28 07:51:31;;;;;;;525.40;502.65;;;;;;;28.55;42.17;98903.69;4908463;28;103302;-66
2023/09/28 07:53:59;;;;;;;513.45;491.42;;;;;;;28.65;41.57;98906.81;4908966;28;104255;-66
2023/09/28 07:56:30;;;;;;;494.92;473.48;;;;;;;28.64;41.54;98910.56;4910769;28;103075;-66
2023/09/28 07:58:59;;;;;;;457.73;436.50;;;;;;;29.43;40.38;98904.41;4917278;28;102668;-66
2023/09/28 08:01:27;;;;;;;518.60;494.67;;;;;;;29.44;40.17;98895.19;4908766;28;104413;-66
2023/09/28 08:03:55;;;;;;;528.30;505.35;;;;;;;29.20;40.82;98905.88;4916454;28;103207;-66
2023/09/28 08:06:24;;;;;;;525.00;502.63;;;;;;;29.00;40.76;98907.94;4910947;28;102972;-66
2023/09/28 08:08:59;;;;;;;541.10;516.72;;;;;;;29.77;40.60;98898.34;4921049;28;104226;-63
2023/09/28 08:11:30;;;;;;;501.42;479.98;;;;;;;29.10;40.07;98899.28;4905191;28;104154;-66
2023/09/28 08:13:58;;;;;;;513.08;490.63;;;;;;;29.81;40.14;98897.66;4910937;28;103256;-66
2023/09/28 08:16:27;;;;;;;485.00;465.00;;;;;;;29.83;39.80;98894.75;4913107;28;103009;-66
2023/09/28 08:18:55;;;;;;;478.55;458.52;;;;;;;29.86;40.21;98889.66;4904907;28;103041;-66
2023/09/28 08:21:24;;;;;;;526.30;503.30;;;;;;;29.92;39.28;98900.69;4900561;28;103286;-66
2023/09/28 08:23:55;;;;;;;492.50;471.50;;;;;;;29.71;40.14;98896.53;4906631;28;104710;-66
2023/09/28 08:26:24;;;;;;;626.35;598.15;;;;;;;30.15;39.28;98893.44;4905003;28;104209;-66
2023/09/28 08:28:53;;;;;;;740.83;705.25;;;;;;;31.21;37.48;98892.59;4905934;28;103225;-66
2023/09/28 08:31:21;;;;;;;748.60;712.30;;;;;;;31.72;37.50;98895.38;4906174;28;103204;-66
2023/09/28 08:33:49;;;;;;;754.67;718.17;;;;;;;32.00;37.24;98897.31;4921429;28;103324;-66
2023/09/28 08:36:17;;;;;;;809.20;768.13;;;;;;;31.74;35.85;98904.16;4904810;28;102722;-67
2023/09/28 08:38:46;;;;;;;689.53;657.63;;;;;;;30.81;37.76;98909.63;4923219;28;102805;-65
2023/09/28 08:41:17;;;;;;;795.43;754.80;;;;;;;32.14;36.63;98898.72;4913636;28;104248;-66
2023/09/28 08:43:54;;;;;;;800.40;759.13;;;;;;;31.71;37.19;98903.81;4908851;28;103177;-65
2023/09/28 08:46:23;;;;;;;875.55;826.92;;;;;;;32.68;35.33;98900.78;4930987;28;102725;-66
2023/09/28 08:49:14;;;;;;;884.10;834.63;;;;;;;33.24;34.95;98893.47;4909085;28;104112;-66
2023/09/28 08:51:44;;;;;;;817.03;774.10;;;;;;;32.27;35.43;98898.41;4927251;28;103325;-66
2023/09/28 08:54:13;;;;;;;886.38;837.33;;;;;;;32.21;35.36;98904.84;4923950;28;103271;-66
2023/09/28 08:56:43;;;;;;;849.78;804.72;;;;;;;31.78;36.42;98909.94;4909846;28;103081;-67
2023/09/28 08:59:13;;;;;;;888.83;839.83;;;;;;;32.95;34.83;98902.88;4909318;28;102932;-66
2023/09/28 09:01:46;;;;;;;930.77;878.67;;;;;;;34.15;34.08;98903.75;4912669;28;103994;-66
2023/09/28 09:04:14;;;;;;;933.50;880.10;;;;;;;34.06;33.83;98908.00;4919118;28;103877;-67
2023/09/28 09:06:43;;;;;;;913.22;862.03;;;;;;;33.23;34.74;98900.88;4918458;28;102871;-67
2023/09/28 09:09:15;;;;;;;924.28;871.30;;;;;;;33.83;33.52;98891.03;4908440;28;103934;-66
2023/09/28 09:11:50;;;;;;;925.38;873.10;;;;;;;34.09;34.37;98898.44;4912157;28;104112;-67
2023/09/28 09:14:21;;;;;;;926.03;874.05;;;;;;;33.90;33.52;98894.38;4913004;28;103178;-67
2023/09/28 09:16:49;;;;;;;947.40;893.03;;;;;;;33.73;34.45;98895.28;4911173;28;102725;-62
2023/09/28 09:19:18;;;;;;;931.75;879.55;;;;;;;33.09;34.29;98896.00;4912783;28;103071;-66
2023/09/28 09:21:45;;;;;;;911.63;861.50;;;;;;;33.72;33.98;98893.63;4913768;28;103965;-66
2023/09/28 09:24:18;;;;;;;932.67;879.77;;;;;;;34.23;33.81;98902.44;4920678;28;104086;-66
2023/09/28 09:26:50;;;;;;;944.63;891.50;;;;;;;34.27;33.57;98892.63;4911990;28;102720;-66
2023/09/28 09:29:18;;;;;;;935.97;882.23;;;;;;;33.48;34.50;98900.41;4908894;28;103579;-66
2023/09/28 09:31:50;;;;;;;942.28;888.30;;;;;;;34.07;33.66;98897.88;4915684;28;104666;-66
2023/09/28 09:34:21;;;;;;;919.27;868.90;;;;;;;34.24;32.78;98898.63;4910388;28;103290;-66
2023/09/28 09:36:52;;;;;;;954.28;901.00;;;;;;;34.14;33.77;98903.97;4908173;28;103121;-66
2023/09/28 09:39:25;;;;;;;882.30;835.70;;;;;;;34.76;31.67;98896.94;4910744;28;102924;-66
2023/09/28 09:41:53;;;;;;;926.10;874.33;;;;;;;33.05;33.81;98894.81;4911647;28;104557;-66
2023/09/28 09:44:24;;;;;;;929.67;878.60;;;;;;;33.72;34.11;98890.88;4909876;28;103078;-66
2023/09/28 09:46:55;;;;;;;942.30;889.75;;;;;;;34.37;34.14;98895.47;4907670;28;102832;-66
2023/09/28 09:49:25;;;;;;;903.83;855.47;;;;;;;35.29;32.37;98893.22;4910107;28;104019;-65
2023/09/28 09:51:54;;;;;;;913.23;864.23;;;;;;;34.98;32.83;98894.06;4909810;28;104344;-65
2023/09/28 09:54:23;;;;;;;901.90;853.70;;;;;;;35.44;32.42;98893.31;4910733;28;103317;-66
2023/09/28 09:56:53;;;;;;;871.40;826.03;;;;;;;35.20;32.16;98899.50;4910219;28;104472;-65
2023/09/28 09:59:22;;;;;;;875.35;830.35;;;;;;;34.63;32.37;98897.38;4924241;28;102773;-65
2023/09/28 10:01:53;;;;;;;878.85;833.85;;;;;;;35.03;32.97;98898.81;4927166;28;103273;-65
2023/09/28 10:04:26;;;;;;;954.40;900.08;;;;;;;34.28;33.79;98897.00;4924720;28;103290;-65
2023/09/28 10:06:56;;;;;;;952.80;897.72;;;;;;;33.78;34.04;98891.75;4909856;28;102700;-65
2023/09/28 10:09:24;;;;;;;846.35;803.88;;;;;;;34.98;31.42;98893.28;4908642;28;102783;-66
2023/09/28 10:11:57;;;;;;;750.50;717.05;;;;;;;35.80;30.86;98877.84;4913185;28;103344;-66
2023/09/28 10:14:26;;;;;;;826.43;785.30;;;;;;;32.53;33.41;98889.59;4904275;28;103326;-65
2023/09/28 10:16:55;;;;;;;937.33;885.33;;;;;;;32.54;35.08;98894.00;4907344;28;103520;-66
2023/09/28 10:19:29;;;;;;;842.95;800.42;;;;;;;34.14;32.20;98890.28;4911483;28;103925;-66
2023/09/28 10:21:57;;;;;;;854.53;812.05;;;;;;;34.84;31.41;98882.72;4907933;28;104175;-66
2023/09/28 10:24:30;;;;;;;748.63;715.08;;;;;;;35.53;30.53;98890.91;4916970;28;104191;-66
2023/09/28 10:27:09;;;;;;;868.33;823.70;;;;;;;34.40;32.48;98900.44;4909854;28;102679;-66
2023/09/28 10:29:40;;;;;;;680.70;650.77;;;;;;;34.97;31.02;98891.63;4911058;28;103857;-66
2023/09/28 10:32:15;;;;;;;856.25;812.67;;;;;;;34.72;30.97;98886.75;4906107;28;104094;-66
2023/09/28 10:34:46;;;;;;;861.07;816.57;;;;;;;32.74;32.69;98884.47;4924385;28;104224;-61
2023/09/28 10:37:22;;;;;;;836.83;795.38;;;;;;;32.81;33.00;98887.88;4909275;28;102736;-62
2023/09/28 10:39:52;;;;;;;837.30;795.67;;;;;;;33.10;32.45;98881.22;4906857;28;103086;-62
2023/09/28 10:42:22;;;;;;;727.28;694.53;;;;;;;35.17;31.71;98867.91;4910921;28;103162;-62
2023/09/28 10:44:51;;;;;;;808.78;769.72;;;;;;;35.31;31.45;98876.50;4917309;28;104336;-61
2023/09/28 10:47:22;;;;;;;553.22;531.30;;;;;;;36.59;29.80;98866.50;4911038;28;102988;-66
2023/09/28 10:49:58;;;;;;;758.92;723.88;;;;;;;33.20;32.19;98882.22;4914551;28;103767;-62
2023/09/28 10:52:27;;;;;;;768.40;732.93;;;;;;;34.54;30.92;98868.75;4910533;28;104260;-62
2023/09/28 10:54:56;;;;;;;822.95;783.15;;;;;;;34.46;31.77;98869.22;4906147;28;105562;-62
2023/09/28 10:57:31;;;;;;;643.20;615.27;;;;;;;33.54;31.15;98866.53;4908224;28;102925;-61
2023/09/28 11:00:01;;;;;;;481.95;463.38;;;;;;;35.56;29.66;98862.94;4901722;28;104007;-62
2023/09/28 11:02:29;;;;;;;432.35;416.17;;;;;;;36.00;28.86;98858.66;4921028;28;103676;-62
2023/09/28 11:05:01;;;;;;;297.77;287.03;;;;;;;36.82;28.24;98859.63;4906329;28;103351;-64